sensor_id;sensor_type;location;lat;lon;timestamp;temperature;humidity
18611;DHT22;9435;52.122;5.502;2023-02-03T00:00:43;8.90;99.90
18611;DHT22;9435;52.122;5.502;2023-02-03T00:03:10;8.90;99.90
18611;DHT22;9435;52.122;5.502;2023-02-03T00:05:38;8.90;99.90
18611;DHT22;9435;52.122;5.502;2023-02-03T00:08:06;8.90;99.90
18611;DHT22;9435;52.122;5.502;2023-02-03T00:10:35;8.90;99.90
18611;DHT22;9435;52.122;5.502;2023-02-03T00:13:03;8.90;99.90
18611;DHT22;9435;52.122;5.502;2023-02-03T00:15:30;8.90;99.90
18611;DHT22;9435;52.122;5.502;2023-02-03T00:17:58;8.90;99.90
18611;DHT22;9435;52.122;5.502;2023-02-03T00:20:25;8.90;99.90
18611;DHT22;9435;52.122;5.502;2023-02-03T00:22:52;8.90;99.90
18611;DHT22;9435;52.122;5.502;2023-02-03T00:25:19;8.90;99.90
18611;DHT22;9435;52.122;5.502;2023-02-03T00:27:47;8.90;99.90
18611;DHT22;9435;52.122;5.502;2023-02-03T00:30:14;8.90;99.90
18611;DHT22;9435;52.122;5.502;2023-02-03T00:32:41;8.80;99.90
18611;DHT22;9435;52.122;5.502;2023-02-03T00:35:09;8.80;99.90
18611;DHT22;9435;52.122;5.502;2023-02-03T00:37:36;8.80;99.90
18611;DHT22;9435;52.122;5.502;2023-02-03T00:40:04;8.80;99.90
18611;DHT22;9435;52.122;5.502;2023-02-03T00:42:32;8.80;99.90
18611;DHT22;9435;52.122;5.502;2023-02-03T00:45:00;8.80;99.90
18611;DHT22;9435;52.122;5.502;2023-02-03T00:47:27;8.80;99.90
18611;DHT22;9435;52.122;5.502;2023-02-03T00:49:54;8.80;99.90
18611;DHT22;9435;52.122;5.502;2023-02-03T00:52:22;8.80;99.90
18611;DHT22;9435;52.122;5.502;2023-02-03T00:54:49;8.80;99.90
18611;DHT22;9435;52.122;5.502;2023-02-03T00:57:16;8.80;99.90
18611;DHT22;9435;52.122;5.502;2023-02-03T00:59:43;8.80;99.90
18611;DHT22;9435;52.122;5.502;2023-02-03T01:02:10;8.80;99.90
18611;DHT22;9435;52.122;5.502;2023-02-03T01:04:37;8.80;99.90
18611;DHT22;9435;52.122;5.502;2023-02-03T01:07:05;8.80;99.90
18611;DHT22;9435;52.122;5.502;2023-02-03T01:09:34;8.80;99.90
18611;DHT22;9435;52.122;5.502;2023-02-03T01:12:02;8.80;99.90
18611;DHT22;9435;52.122;5.502;2023-02-03T01:14:29;8.80;99.90
18611;DHT22;9435;52.122;5.502;2023-02-03T01:16:56;8.80;99.90
18611;DHT22;9435;52.122;5.502;2023-02-03T01:19:23;8.80;99.90
18611;DHT22;9435;52.122;5.502;2023-02-03T01:21:50;8.90;99.90
18611;DHT22;9435;52.122;5.502;2023-02-03T01:24:17;8.90;99.90
18611;DHT22;9435;52.122;5.502;2023-02-03T01:26:46;8.90;99.90
18611;DHT22;9435;52.122;5.502;2023-02-03T01:29:13;8.90;99.90
18611;DHT22;9435;52.122;5.502;2023-02-03T01:31:41;8.90;99.90
18611;DHT22;9435;52.122;5.502;2023-02-03T01:34:12;8.90;99.90
18611;DHT22;9435;52.122;5.502;2023-02-03T01:36:40;8.80;99.90
18611;DHT22;9435;52.122;5.502;2023-02-03T01:39:08;8.90;99.90
18611;DHT22;9435;52.122;5.502;2023-02-03T01:41:38;8.90;99.90
18611;DHT22;9435;52.122;5.502;2023-02-03T01:44:43;8.90;99.90
18611;DHT22;9435;52.122;5.502;2023-02-03T01:47:16;8.80;99.90
18611;DHT22;9435;52.122;5.502;2023-02-03T01:49:47;8.80;99.90
18611;DHT22;9435;52.122;5.502;2023-02-03T01:52:15;8.90;99.90
18611;DHT22;9435;52.122;5.502;2023-02-03T01:54:45;8.90;99.90
18611;DHT22;9435;52.122;5.502;2023-02-03T01:57:18;8.90;99.90
18611;DHT22;9435;52.122;5.502;2023-02-03T01:59:47;8.90;99.90
18611;DHT22;9435;52.122;5.502;2023-02-03T02:02:15;8.90;99.90
18611;DHT22;9435;52.122;5.502;2023-02-03T02:04:52;9.00;99.90
18611;DHT22;9435;52.122;5.502;2023-02-03T02:07:20;9.00;99.90
18611;DHT22;9435;52.122;5.502;2023-02-03T02:09:50;8.90;99.90
18611;DHT22;9435;52.122;5.502;2023-02-03T02:12:18;8.90;99.90
18611;DHT22;9435;52.122;5.502;2023-02-03T02:14:47;9.00;99.90
18611;DHT22;9435;52.122;5.502;2023-02-03T02:20:53;9.00;99.90
18611;DHT22;9435;52.122;5.502;2023-02-03T02:23:40;9.00;99.90
18611;DHT22;9435;52.122;5.502;2023-02-03T02:26:43;9.00;99.90
18611;DHT22;9435;52.122;5.502;2023-02-03T02:32:23;9.00;99.90
18611;DHT22;9435;52.122;5.502;2023-02-03T02:35:00;9.10;99.90
18611;DHT22;9435;52.122;5.502;2023-02-03T02:37:34;9.10;99.90
18611;DHT22;9435;52.122;5.502;2023-02-03T02:40:12;9.10;99.90
18611;DHT22;9435;52.122;5.502;2023-02-03T02:42:53;9.00;99.90
18611;DHT22;9435;52.122;5.502;2023-02-03T02:45:28;9.10;99.90
18611;DHT22;9435;52.122;5.502;2023-02-03T02:48:01;9.10;99.90
18611;DHT22;9435;52.122;5.502;2023-02-03T02:50:33;9.00;99.90
18611;DHT22;9435;52.122;5.502;2023-02-03T02:53:01;9.10;99.90
18611;DHT22;9435;52.122;5.502;2023-02-03T02:55:32;9.10;99.90
18611;DHT22;9435;52.122;5.502;2023-02-03T02:58:03;9.00;99.90
18611;DHT22;9435;52.122;5.502;2023-02-03T03:00:34;9.10;99.90
18611;DHT22;9435;52.122;5.502;2023-02-03T03:03:14;9.10;99.90
18611;DHT22;9435;52.122;5.502;2023-02-03T03:05:43;9.10;99.90
18611;DHT22;9435;52.122;5.502;2023-02-03T03:08:13;9.10;99.90
18611;DHT22;9435;52.122;5.502;2023-02-03T03:10:41;9.10;99.90
18611;DHT22;9435;52.122;5.502;2023-02-03T03:13:14;9.10;99.90
18611;DHT22;9435;52.122;5.502;2023-02-03T03:15:43;9.10;99.90
18611;DHT22;9435;52.122;5.502;2023-02-03T03:18:14;9.10;99.90
18611;DHT22;9435;52.122;5.502;2023-02-03T03:20:46;9.10;99.90
18611;DHT22;9435;52.122;5.502;2023-02-03T03:23:18;9.10;99.90
18611;DHT22;9435;52.122;5.502;2023-02-03T03:25:50;9.10;99.90
18611;DHT22;9435;52.122;5.502;2023-02-03T03:28:23;9.00;99.90
18611;DHT22;9435;52.122;5.502;2023-02-03T03:30:52;9.00;99.90
18611;DHT22;9435;52.122;5.502;2023-02-03T03:33:21;9.00;99.90
18611;DHT22;9435;52.122;5.502;2023-02-03T03:35:58;9.00;99.90
18611;DHT22;9435;52.122;5.502;2023-02-03T03:38:31;9.10;99.90
18611;DHT22;9435;52.122;5.502;2023-02-03T03:41:05;9.10;99.90
18611;DHT22;9435;52.122;5.502;2023-02-03T03:43:38;9.10;99.90
18611;DHT22;9435;52.122;5.502;2023-02-03T03:46:11;9.10;99.90
18611;DHT22;9435;52.122;5.502;2023-02-03T03:48:43;9.10;99.90
18611;DHT22;9435;52.122;5.502;2023-02-03T03:51:18;9.10;99.90
18611;DHT22;9435;52.122;5.502;2023-02-03T03:53:47;9.10;99.90
18611;DHT22;9435;52.122;5.502;2023-02-03T03:56:19;9.20;99.90
18611;DHT22;9435;52.122;5.502;2023-02-03T03:58:49;9.20;99.90
18611;DHT22;9435;52.122;5.502;2023-02-03T04:01:19;9.20;99.90
18611;DHT22;9435;52.122;5.502;2023-02-03T04:03:51;9.20;99.90
18611;DHT22;9435;52.122;5.502;2023-02-03T04:06:20;9.20;99.90
18611;DHT22;9435;52.122;5.502;2023-02-03T04:08:47;9.20;99.90
18611;DHT22;9435;52.122;5.502;2023-02-03T04:11:14;9.20;99.90
18611;DHT22;9435;52.122;5.502;2023-02-03T04:14:01;9.20;99.90
18611;DHT22;9435;52.122;5.502;2023-02-03T04:16:28;9.30;99.90
18611;DHT22;9435;52.122;5.502;2023-02-03T04:18:56;9.20;99.90
18611;DHT22;9435;52.122;5.502;2023-02-03T04:21:23;9.30;99.90
18611;DHT22;9435;52.122;5.502;2023-02-03T04:23:50;9.20;99.90
18611;DHT22;9435;52.122;5.502;2023-02-03T04:26:17;9.20;99.90
18611;DHT22;9435;52.122;5.502;2023-02-03T04:28:44;9.30;99.90
18611;DHT22;9435;52.122;5.502;2023-02-03T04:31:11;9.20;99.90
18611;DHT22;9435;52.122;5.502;2023-02-03T04:33:38;9.30;99.90
18611;DHT22;9435;52.122;5.502;2023-02-03T04:36:08;9.30;99.90
18611;DHT22;9435;52.122;5.502;2023-02-03T04:38:35;9.30;99.90
18611;DHT22;9435;52.122;5.502;2023-02-03T04:41:02;9.30;99.90
18611;DHT22;9435;52.122;5.502;2023-02-03T04:43:29;9.30;99.90
18611;DHT22;9435;52.122;5.502;2023-02-03T04:45:58;9.20;99.90
18611;DHT22;9435;52.122;5.502;2023-02-03T04:48:25;9.30;99.90
18611;DHT22;9435;52.122;5.502;2023-02-03T04:50:52;9.20;99.90
18611;DHT22;9435;52.122;5.502;2023-02-03T04:53:21;9.30;99.90
18611;DHT22;9435;52.122;5.502;2023-02-03T04:55:48;9.30;99.90
18611;DHT22;9435;52.122;5.502;2023-02-03T04:58:15;9.30;99.90
18611;DHT22;9435;52.122;5.502;2023-02-03T05:00:42;9.30;99.90
18611;DHT22;9435;52.122;5.502;2023-02-03T05:03:09;9.30;99.90
18611;DHT22;9435;52.122;5.502;2023-02-03T05:05:36;9.30;99.90
18611;DHT22;9435;52.122;5.502;2023-02-03T05:08:03;9.20;99.90
18611;DHT22;9435;52.122;5.502;2023-02-03T05:10:32;9.30;99.90
18611;DHT22;9435;52.122;5.502;2023-02-03T05:12:59;9.30;99.90
18611;DHT22;9435;52.122;5.502;2023-02-03T05:15:26;9.30;99.90
18611;DHT22;9435;52.122;5.502;2023-02-03T05:17:54;9.30;99.90
18611;DHT22;9435;52.122;5.502;2023-02-03T05:20:21;9.30;99.90
18611;DHT22;9435;52.122;5.502;2023-02-03T05:22:48;9.40;99.90
18611;DHT22;9435;52.122;5.502;2023-02-03T05:25:16;9.30;99.90
18611;DHT22;9435;52.122;5.502;2023-02-03T05:27:44;9.40;99.90
18611;DHT22;9435;52.122;5.502;2023-02-03T05:30:11;9.40;99.90
18611;DHT22;9435;52.122;5.502;2023-02-03T05:32:38;9.40;99.90
18611;DHT22;9435;52.122;5.502;2023-02-03T05:35:07;9.40;99.90
18611;DHT22;9435;52.122;5.502;2023-02-03T05:37:34;9.40;99.90
18611;DHT22;9435;52.122;5.502;2023-02-03T05:40:01;9.50;99.90
18611;DHT22;9435;52.122;5.502;2023-02-03T05:42:47;9.50;99.90
18611;DHT22;9435;52.122;5.502;2023-02-03T05:45:15;9.50;99.90
18611;DHT22;9435;52.122;5.502;2023-02-03T05:47:42;9.50;99.90
18611;DHT22;9435;52.122;5.502;2023-02-03T05:50:09;9.50;99.90
18611;DHT22;9435;52.122;5.502;2023-02-03T05:52:36;9.50;99.90
18611;DHT22;9435;52.122;5.502;2023-02-03T05:55:03;9.50;99.90
18611;DHT22;9435;52.122;5.502;2023-02-03T05:57:31;9.50;99.90
18611;DHT22;9435;52.122;5.502;2023-02-03T05:59:59;9.60;99.90
18611;DHT22;9435;52.122;5.502;2023-02-03T06:02:26;9.60;99.90
18611;DHT22;9435;52.122;5.502;2023-02-03T06:04:53;9.60;99.90
18611;DHT22;9435;52.122;5.502;2023-02-03T06:07:20;9.50;99.90
18611;DHT22;9435;52.122;5.502;2023-02-03T06:09:47;9.50;99.90
18611;DHT22;9435;52.122;5.502;2023-02-03T06:12:14;9.60;99.90
18611;DHT22;9435;52.122;5.502;2023-02-03T06:14:41;9.50;99.90
18611;DHT22;9435;52.122;5.502;2023-02-03T06:17:10;9.50;99.90
18611;DHT22;9435;52.122;5.502;2023-02-03T06:19:37;9.50;99.90
18611;DHT22;9435;52.122;5.502;2023-02-03T06:22:05;9.60;99.90
18611;DHT22;9435;52.122;5.502;2023-02-03T06:24:32;9.60;99.90
18611;DHT22;9435;52.122;5.502;2023-02-03T06:26:59;9.60;99.90
18611;DHT22;9435;52.122;5.502;2023-02-03T06:29:26;9.60;99.90
18611;DHT22;9435;52.122;5.502;2023-02-03T06:31:53;9.60;99.90
18611;DHT22;9435;52.122;5.502;2023-02-03T06:34:22;9.50;99.90
18611;DHT22;9435;52.122;5.502;2023-02-03T06:36:49;9.60;99.90
18611;DHT22;9435;52.122;5.502;2023-02-03T06:39:16;9.50;99.90
18611;DHT22;9435;52.122;5.502;2023-02-03T06:41:43;9.50;99.90
18611;DHT22;9435;52.122;5.502;2023-02-03T06:44:10;9.50;99.90
18611;DHT22;9435;52.122;5.502;2023-02-03T06:46:37;9.60;99.90
18611;DHT22;9435;52.122;5.502;2023-02-03T06:49:04;9.60;99.90
18611;DHT22;9435;52.122;5.502;2023-02-03T06:51:33;9.60;99.90
18611;DHT22;9435;52.122;5.502;2023-02-03T06:54:01;9.50;99.90
18611;DHT22;9435;52.122;5.502;2023-02-03T06:56:28;9.50;99.90
18611;DHT22;9435;52.122;5.502;2023-02-03T06:58:56;9.50;99.90
18611;DHT22;9435;52.122;5.502;2023-02-03T07:01:23;9.50;99.90
18611;DHT22;9435;52.122;5.502;2023-02-03T07:03:51;9.50;99.90
18611;DHT22;9435;52.122;5.502;2023-02-03T07:06:19;9.50;99.90
18611;DHT22;9435;52.122;5.502;2023-02-03T07:08:48;9.50;99.90
18611;DHT22;9435;52.122;5.502;2023-02-03T07:11:15;9.50;99.90
18611;DHT22;9435;52.122;5.502;2023-02-03T07:13:42;9.50;99.90
18611;DHT22;9435;52.122;5.502;2023-02-03T07:16:09;9.50;99.90
18611;DHT22;9435;52.122;5.502;2023-02-03T07:18:36;9.50;99.90
18611;DHT22;9435;52.122;5.502;2023-02-03T07:21:04;9.50;99.90
18611;DHT22;9435;52.122;5.502;2023-02-03T07:23:32;9.40;99.90
18611;DHT22;9435;52.122;5.502;2023-02-03T07:26:01;9.50;99.90
18611;DHT22;9435;52.122;5.502;2023-02-03T07:28:29;9.50;99.90
18611;DHT22;9435;52.122;5.502;2023-02-03T07:30:56;9.50;99.90
18611;DHT22;9435;52.122;5.502;2023-02-03T07:33:23;9.40;99.90
18611;DHT22;9435;52.122;5.502;2023-02-03T07:35:51;9.50;99.90
18611;DHT22;9435;52.122;5.502;2023-02-03T07:38:18;9.50;99.90
18611;DHT22;9435;52.122;5.502;2023-02-03T07:40:45;9.50;99.90
18611;DHT22;9435;52.122;5.502;2023-02-03T07:43:14;9.50;99.90
18611;DHT22;9435;52.122;5.502;2023-02-03T07:45:41;9.50;99.90
18611;DHT22;9435;52.122;5.502;2023-02-03T07:48:08;9.50;99.90
18611;DHT22;9435;52.122;5.502;2023-02-03T07:50:35;9.50;99.90
18611;DHT22;9435;52.122;5.502;2023-02-03T07:53:03;9.40;99.90
18611;DHT22;9435;52.122;5.502;2023-02-03T07:55:31;9.40;99.90
18611;DHT22;9435;52.122;5.502;2023-02-03T07:57:59;9.50;99.90
18611;DHT22;9435;52.122;5.502;2023-02-03T08:00:29;9.50;99.90
18611;DHT22;9435;52.122;5.502;2023-02-03T08:02:56;9.50;99.90
18611;DHT22;9435;52.122;5.502;2023-02-03T08:05:23;9.50;99.90
18611;DHT22;9435;52.122;5.502;2023-02-03T08:07:50;9.50;99.90
18611;DHT22;9435;52.122;5.502;2023-02-03T08:10:17;9.50;99.90
18611;DHT22;9435;52.122;5.502;2023-02-03T08:12:44;9.50;99.90
18611;DHT22;9435;52.122;5.502;2023-02-03T08:15:13;9.50;99.90
18611;DHT22;9435;52.122;5.502;2023-02-03T08:17:41;9.50;99.90
18611;DHT22;9435;52.122;5.502;2023-02-03T08:20:10;9.50;99.90
18611;DHT22;9435;52.122;5.502;2023-02-03T08:22:37;9.50;99.90
18611;DHT22;9435;52.122;5.502;2023-02-03T08:25:05;9.50;99.90
18611;DHT22;9435;52.122;5.502;2023-02-03T08:27:32;9.60;99.90
18611;DHT22;9435;52.122;5.502;2023-02-03T08:29:59;9.60;99.90
18611;DHT22;9435;52.122;5.502;2023-02-03T08:32:26;9.60;99.90
18611;DHT22;9435;52.122;5.502;2023-02-03T08:34:55;9.70;99.90
18611;DHT22;9435;52.122;5.502;2023-02-03T08:37:23;9.60;99.90
18611;DHT22;9435;52.122;5.502;2023-02-03T08:39:51;9.60;99.90
18611;DHT22;9435;52.122;5.502;2023-02-03T08:42:18;9.60;99.90
18611;DHT22;9435;52.122;5.502;2023-02-03T08:44:45;9.70;99.90
18611;DHT22;9435;52.122;5.502;2023-02-03T08:47:14;9.70;99.90
18611;DHT22;9435;52.122;5.502;2023-02-03T08:49:41;9.70;99.90
18611;DHT22;9435;52.122;5.502;2023-02-03T08:52:11;9.70;99.90
18611;DHT22;9435;52.122;5.502;2023-02-03T08:54:39;9.70;99.90
18611;DHT22;9435;52.122;5.502;2023-02-03T08:57:06;9.70;99.90
18611;DHT22;9435;52.122;5.502;2023-02-03T08:59:34;9.70;99.90
18611;DHT22;9435;52.122;5.502;2023-02-03T09:02:01;9.80;99.90
18611;DHT22;9435;52.122;5.502;2023-02-03T09:04:29;9.80;99.90
18611;DHT22;9435;52.122;5.502;2023-02-03T09:06:58;9.80;99.90
18611;DHT22;9435;52.122;5.502;2023-02-03T09:09:28;9.80;99.90
18611;DHT22;9435;52.122;5.502;2023-02-03T09:11:55;9.90;99.90
18611;DHT22;9435;52.122;5.502;2023-02-03T09:14:27;9.90;99.90
18611;DHT22;9435;52.122;5.502;2023-02-03T09:16:54;9.90;99.90
18611;DHT22;9435;52.122;5.502;2023-02-03T09:19:21;10.00;99.90
18611;DHT22;9435;52.122;5.502;2023-02-03T09:21:48;10.00;99.90
18611;DHT22;9435;52.122;5.502;2023-02-03T09:24:15;10.00;99.90
18611;DHT22;9435;52.122;5.502;2023-02-03T09:26:44;10.00;99.90
18611;DHT22;9435;52.122;5.502;2023-02-03T09:29:11;10.00;99.90
18611;DHT22;9435;52.122;5.502;2023-02-03T09:31:38;10.00;99.90
18611;DHT22;9435;52.122;5.502;2023-02-03T09:34:06;10.10;99.90
18611;DHT22;9435;52.122;5.502;2023-02-03T09:36:34;10.10;99.90
18611;DHT22;9435;52.122;5.502;2023-02-03T09:39:02;10.10;99.90
18611;DHT22;9435;52.122;5.502;2023-02-03T09:41:45;10.10;99.90
18611;DHT22;9435;52.122;5.502;2023-02-03T09:44:20;10.10;99.90
18611;DHT22;9435;52.122;5.502;2023-02-03T09:46:52;10.10;99.90
18611;DHT22;9435;52.122;5.502;2023-02-03T09:49:23;10.10;99.90
18611;DHT22;9435;52.122;5.502;2023-02-03T09:51:56;10.10;99.90
18611;DHT22;9435;52.122;5.502;2023-02-03T09:54:30;10.10;99.90
18611;DHT22;9435;52.122;5.502;2023-02-03T09:57:12;10.10;99.90
18611;DHT22;9435;52.122;5.502;2023-02-03T09:59:40;10.10;99.90
18611;DHT22;9435;52.122;5.502;2023-02-03T10:02:20;10.10;99.90
18611;DHT22;9435;52.122;5.502;2023-02-03T10:04:55;10.20;99.90
18611;DHT22;9435;52.122;5.502;2023-02-03T10:07:30;10.20;99.90
18611;DHT22;9435;52.122;5.502;2023-02-03T10:10:03;10.20;99.90
18611;DHT22;9435;52.122;5.502;2023-02-03T10:12:56;10.20;99.90
18611;DHT22;9435;52.122;5.502;2023-02-03T10:15:51;10.20;99.90
18611;DHT22;9435;52.122;5.502;2023-02-03T10:18:24;10.20;99.90
18611;DHT22;9435;52.122;5.502;2023-02-03T10:20:55;10.30;99.90
18611;DHT22;9435;52.122;5.502;2023-02-03T10:23:28;10.30;99.90
18611;DHT22;9435;52.122;5.502;2023-02-03T10:25:56;10.30;99.90
18611;DHT22;9435;52.122;5.502;2023-02-03T10:28:30;10.30;99.90
18611;DHT22;9435;52.122;5.502;2023-02-03T10:30:58;10.30;99.90
18611;DHT22;9435;52.122;5.502;2023-02-03T10:33:27;10.40;99.90
18611;DHT22;9435;52.122;5.502;2023-02-03T10:35:59;10.40;99.90
18611;DHT22;9435;52.122;5.502;2023-02-03T10:38:38;10.40;99.90
18611;DHT22;9435;52.122;5.502;2023-02-03T10:41:07;10.40;99.90
18611;DHT22;9435;52.122;5.502;2023-02-03T10:43:36;10.40;99.90
18611;DHT22;9435;52.122;5.502;2023-02-03T10:46:17;10.50;99.90
18611;DHT22;9435;52.122;5.502;2023-02-03T10:48:45;10.40;99.90
18611;DHT22;9435;52.122;5.502;2023-02-03T10:51:20;10.50;99.90
18611;DHT22;9435;52.122;5.502;2023-02-03T10:53:48;10.50;99.90
18611;DHT22;9435;52.122;5.502;2023-02-03T10:56:20;10.50;99.90
18611;DHT22;9435;52.122;5.502;2023-02-03T10:58:51;10.50;99.90
18611;DHT22;9435;52.122;5.502;2023-02-03T11:01:20;10.50;99.90
18611;DHT22;9435;52.122;5.502;2023-02-03T11:03:57;10.60;99.90
18611;DHT22;9435;52.122;5.502;2023-02-03T11:06:25;10.50;99.90
18611;DHT22;9435;52.122;5.502;2023-02-03T11:08:53;10.60;99.90
18611;DHT22;9435;52.122;5.502;2023-02-03T11:11:22;10.60;99.90
18611;DHT22;9435;52.122;5.502;2023-02-03T11:14:11;10.50;99.90
18611;DHT22;9435;52.122;5.502;2023-02-03T11:16:42;10.60;99.90
18611;DHT22;9435;52.122;5.502;2023-02-03T11:19:15;10.60;99.90
18611;DHT22;9435;52.122;5.502;2023-02-03T11:21:46;10.50;99.90
18611;DHT22;9435;52.122;5.502;2023-02-03T11:24:17;10.60;99.90
18611;DHT22;9435;52.122;5.502;2023-02-03T11:26:48;10.50;99.90
18611;DHT22;9435;52.122;5.502;2023-02-03T11:29:23;10.60;99.90
18611;DHT22;9435;52.122;5.502;2023-02-03T11:31:54;10.60;99.90
18611;DHT22;9435;52.122;5.502;2023-02-03T11:34:26;10.50;99.90
18611;DHT22;9435;52.122;5.502;2023-02-03T11:36:54;10.50;99.90
18611;DHT22;9435;52.122;5.502;2023-02-03T11:39:26;10.50;99.90
18611;DHT22;9435;52.122;5.502;2023-02-03T11:41:54;10.50;99.90
18611;DHT22;9435;52.122;5.502;2023-02-03T11:44:24;10.60;99.90
18611;DHT22;9435;52.122;5.502;2023-02-03T11:46:57;10.60;99.90
18611;DHT22;9435;52.122;5.502;2023-02-03T11:49:55;10.60;99.90
18611;DHT22;9435;52.122;5.502;2023-02-03T11:55:32;10.60;99.90
18611;DHT22;9435;52.122;5.502;2023-02-03T11:58:22;10.60;99.90
18611;DHT22;9435;52.122;5.502;2023-02-03T12:01:01;10.60;99.90
18611;DHT22;9435;52.122;5.502;2023-02-03T12:06:48;10.60;99.90
18611;DHT22;9435;52.122;5.502;2023-02-03T12:09:27;10.50;99.90
18611;DHT22;9435;52.122;5.502;2023-02-03T12:12:14;10.50;99.90
18611;DHT22;9435;52.122;5.502;2023-02-03T12:14:51;10.50;99.90
18611;DHT22;9435;52.122;5.502;2023-02-03T12:17:44;10.60;99.90
18611;DHT22;9435;52.122;5.502;2023-02-03T12:23:22;10.40;99.90
18611;DHT22;9435;52.122;5.502;2023-02-03T12:26:02;10.30;99.90
18611;DHT22;9435;52.122;5.502;2023-02-03T12:28:44;10.30;99.90
18611;DHT22;9435;52.122;5.502;2023-02-03T12:31:26;10.20;99.90
18611;DHT22;9435;52.122;5.502;2023-02-03T12:34:04;10.10;99.90
18611;DHT22;9435;52.122;5.502;2023-02-03T12:36:36;10.10;99.90
18611;DHT22;9435;52.122;5.502;2023-02-03T12:39:10;10.10;99.90
18611;DHT22;9435;52.122;5.502;2023-02-03T12:41:41;10.00;99.90
18611;DHT22;9435;52.122;5.502;2023-02-03T12:44:16;9.90;99.90
18611;DHT22;9435;52.122;5.502;2023-02-03T12:46:48;9.90;99.90
18611;DHT22;9435;52.122;5.502;2023-02-03T12:49:37;9.90;99.90
18611;DHT22;9435;52.122;5.502;2023-02-03T12:52:15;9.90;99.90
18611;DHT22;9435;52.122;5.502;2023-02-03T12:54:47;9.80;99.90
18611;DHT22;9435;52.122;5.502;2023-02-03T12:57:21;9.80;99.90
18611;DHT22;9435;52.122;5.502;2023-02-03T12:59:58;9.80;99.90
18611;DHT22;9435;52.122;5.502;2023-02-03T13:02:29;9.80;99.90
18611;DHT22;9435;52.122;5.502;2023-02-03T13:05:04;9.80;99.90
18611;DHT22;9435;52.122;5.502;2023-02-03T13:07:37;9.80;99.90
18611;DHT22;9435;52.122;5.502;2023-02-03T13:10:15;9.80;99.90
18611;DHT22;9435;52.122;5.502;2023-02-03T13:12:45;9.80;99.90
18611;DHT22;9435;52.122;5.502;2023-02-03T13:15:21;9.80;99.90
18611;DHT22;9435;52.122;5.502;2023-02-03T13:17:54;9.80;99.90
18611;DHT22;9435;52.122;5.502;2023-02-03T13:20:25;9.80;99.90
18611;DHT22;9435;52.122;5.502;2023-02-03T13:22:56;9.80;99.90
18611;DHT22;9435;52.122;5.502;2023-02-03T13:25:26;9.90;99.90
18611;DHT22;9435;52.122;5.502;2023-02-03T13:28:05;9.90;99.90
18611;DHT22;9435;52.122;5.502;2023-02-03T13:30:49;9.90;99.90
18611;DHT22;9435;52.122;5.502;2023-02-03T13:33:50;9.80;99.90
18611;DHT22;9435;52.122;5.502;2023-02-03T13:36:47;9.80;99.90
18611;DHT22;9435;52.122;5.502;2023-02-03T13:39:36;9.80;99.90
18611;DHT22;9435;52.122;5.502;2023-02-03T13:42:12;9.80;99.90
18611;DHT22;9435;52.122;5.502;2023-02-03T13:44:45;9.80;99.90
18611;DHT22;9435;52.122;5.502;2023-02-03T13:47:16;9.80;99.90
18611;DHT22;9435;52.122;5.502;2023-02-03T13:49:47;9.90;99.90
18611;DHT22;9435;52.122;5.502;2023-02-03T13:52:26;9.90;99.90
18611;DHT22;9435;52.122;5.502;2023-02-03T13:54:55;9.80;99.90
18611;DHT22;9435;52.122;5.502;2023-02-03T13:57:27;9.80;99.90
18611;DHT22;9435;52.122;5.502;2023-02-03T13:59:56;9.80;99.90
18611;DHT22;9435;52.122;5.502;2023-02-03T14:05:37;9.80;99.90
18611;DHT22;9435;52.122;5.502;2023-02-03T14:08:44;9.80;99.90
18611;DHT22;9435;52.122;5.502;2023-02-03T14:11:38;9.80;99.90
18611;DHT22;9435;52.122;5.502;2023-02-03T14:23:43;9.70;99.90
18611;DHT22;9435;52.122;5.502;2023-02-03T14:26:20;9.70;99.90
18611;DHT22;9435;52.122;5.502;2023-02-03T14:28:48;9.70;99.90
18611;DHT22;9435;52.122;5.502;2023-02-03T14:31:18;9.70;99.90
18611;DHT22;9435;52.122;5.502;2023-02-03T14:34:05;9.70;99.90
18611;DHT22;9435;52.122;5.502;2023-02-03T14:36:46;9.70;99.90
18611;DHT22;9435;52.122;5.502;2023-02-03T14:39:47;9.70;99.90
18611;DHT22;9435;52.122;5.502;2023-02-03T14:45:37;9.70;99.90
18611;DHT22;9435;52.122;5.502;2023-02-03T14:48:19;9.70;99.90
18611;DHT22;9435;52.122;5.502;2023-02-03T14:50:59;9.70;99.90
18611;DHT22;9435;52.122;5.502;2023-02-03T14:53:53;9.60;99.90
18611;DHT22;9435;52.122;5.502;2023-02-03T14:56:35;9.60;99.90
18611;DHT22;9435;52.122;5.502;2023-02-03T14:59:23;9.60;99.90
18611;DHT22;9435;52.122;5.502;2023-02-03T15:02:10;9.60;99.90
18611;DHT22;9435;52.122;5.502;2023-02-03T15:04:39;9.60;99.90
18611;DHT22;9435;52.122;5.502;2023-02-03T15:07:06;9.50;99.90
18611;DHT22;9435;52.122;5.502;2023-02-03T15:09:38;9.50;99.90
18611;DHT22;9435;52.122;5.502;2023-02-03T15:12:19;9.50;99.90
18611;DHT22;9435;52.122;5.502;2023-02-03T15:14:48;9.50;99.90
18611;DHT22;9435;52.122;5.502;2023-02-03T15:17:22;9.40;99.90
18611;DHT22;9435;52.122;5.502;2023-02-03T15:19:50;9.40;99.90
18611;DHT22;9435;52.122;5.502;2023-02-03T15:22:21;9.40;99.90
18611;DHT22;9435;52.122;5.502;2023-02-03T15:24:51;9.40;99.90
18611;DHT22;9435;52.122;5.502;2023-02-03T15:27:24;9.40;99.90
18611;DHT22;9435;52.122;5.502;2023-02-03T15:29:53;9.40;99.90
18611;DHT22;9435;52.122;5.502;2023-02-03T15:32:24;9.40;99.90
18611;DHT22;9435;52.122;5.502;2023-02-03T15:34:54;9.30;99.90
18611;DHT22;9435;52.122;5.502;2023-02-03T15:37:26;9.30;99.90
18611;DHT22;9435;52.122;5.502;2023-02-03T15:40:00;9.30;99.90
18611;DHT22;9435;52.122;5.502;2023-02-03T15:42:33;9.30;99.90
18611;DHT22;9435;52.122;5.502;2023-02-03T15:45:06;9.30;99.90
18611;DHT22;9435;52.122;5.502;2023-02-03T15:47:40;9.30;99.90
18611;DHT22;9435;52.122;5.502;2023-02-03T15:50:24;9.20;99.90
18611;DHT22;9435;52.122;5.502;2023-02-03T15:52:54;9.20;99.90
18611;DHT22;9435;52.122;5.502;2023-02-03T15:55:29;9.20;99.90
18611;DHT22;9435;52.122;5.502;2023-02-03T15:57:59;9.20;99.90
18611;DHT22;9435;52.122;5.502;2023-02-03T16:00:33;9.20;99.90
18611;DHT22;9435;52.122;5.502;2023-02-03T16:03:05;9.20;99.90
18611;DHT22;9435;52.122;5.502;2023-02-03T16:05:39;9.20;99.90
18611;DHT22;9435;52.122;5.502;2023-02-03T16:08:26;9.20;99.90
18611;DHT22;9435;52.122;5.502;2023-02-03T16:10:54;9.10;99.90
18611;DHT22;9435;52.122;5.502;2023-02-03T16:13:25;9.10;99.90
18611;DHT22;9435;52.122;5.502;2023-02-03T16:16:02;9.10;99.90
18611;DHT22;9435;52.122;5.502;2023-02-03T16:18:34;9.10;99.90
18611;DHT22;9435;52.122;5.502;2023-02-03T16:21:02;9.00;99.90
18611;DHT22;9435;52.122;5.502;2023-02-03T16:23:29;9.00;99.90
18611;DHT22;9435;52.122;5.502;2023-02-03T16:29:10;9.00;99.90
18611;DHT22;9435;52.122;5.502;2023-02-03T16:31:55;9.00;99.90
18611;DHT22;9435;52.122;5.502;2023-02-03T16:34:40;8.90;99.90
18611;DHT22;9435;52.122;5.502;2023-02-03T16:37:26;9.00;99.90
18611;DHT22;9435;52.122;5.502;2023-02-03T16:40:12;8.90;99.90
18611;DHT22;9435;52.122;5.502;2023-02-03T16:42:57;8.90;99.90
18611;DHT22;9435;52.122;5.502;2023-02-03T16:45:43;8.90;99.90
18611;DHT22;9435;52.122;5.502;2023-02-03T16:48:27;8.90;99.90
18611;DHT22;9435;52.122;5.502;2023-02-03T16:51:13;8.80;99.90
18611;DHT22;9435;52.122;5.502;2023-02-03T16:53:43;8.90;99.90
18611;DHT22;9435;52.122;5.502;2023-02-03T16:56:11;8.80;99.90
18611;DHT22;9435;52.122;5.502;2023-02-03T16:58:38;8.90;99.90
18611;DHT22;9435;52.122;5.502;2023-02-03T17:01:07;8.80;99.90
18611;DHT22;9435;52.122;5.502;2023-02-03T17:03:36;8.80;99.90